Virginie Heriot — FGH2040 — position and weather

sailwx.info

Track history (hours):
 
Tides and Currents Weather Stations Pressure Air Temp Water Temp Dewpoint Dewpoint Depression Visibility Wind Speed Wind Dir Waves Ship Positions

Virginie Heriot

Last reported at 2017-Nov-24 14:29 UTC. Time now 2017-Nov-25 04:09 UTC.
Position N 48°17' W 004°25'.

Length 14 m.

Type: Sailing vessel. MMSI: 227071310.

Date/timePositionNaut miles runAvg speedWind from/ knotsBaromVisibWave heightAir tempDewpointWater temp
2017-Nov-24 14:29N 48°17' W 004°25'1 1.8
2017-Nov-24 14:01N 48°18' W 004°25'2 4.3
2017-Nov-24 13:30N 48°19' W 004°27'2 3.1
2017-Nov-24 13:01N 48°18' W 004°29'1 2.3
2017-Nov-24 12:29N 48°17' W 004°30'0 0.0
2017-Nov-24 11:59N 48°17' W 004°30'0 0.0
2017-Nov-24 11:29N 48°17' W 004°30'0 0.4
2017-Nov-24 11:01N 48°17' W 004°30'2 4.6
2017-Nov-24 10:30N 48°19' W 004°27'2 4.0
2017-Nov-24 10:00N 48°19' W 004°24'2 3.6
2017-Nov-24 09:30N 48°17' W 004°25'0 0.7
2017-Nov-24 09:00N 48°17' W 004°25'0 0.0
2017-Nov-23 15:02N 48°17' W 004°25'0 0.1
2017-Nov-23 14:59N 48°17' W 004°25'0 0.6
2017-Nov-23 14:30N 48°17' W 004°25'0 0.1
2017-Nov-23 13:58N 48°17' W 004°25'2 4.4
2017-Nov-23 13:30N 48°19' W 004°27'3 6.7
2017-Nov-23 13:00N 48°22' W 004°29'1 1.9
2017-Nov-23 12:30N 48°23' W 004°29'0 0.0
2017-Nov-23 12:00N 48°23' W 004°29'0 0.0
2017-Nov-23 11:30N 48°23' W 004°29'1 1.3
2017-Nov-23 11:00N 48°22' W 004°29'1 1.6
2017-Nov-23 10:30N 48°22' W 004°30'3 6.2
2017-Nov-23 10:00N 48°19' W 004°28'2 3.7
2017-Nov-23 09:30N 48°19' W 004°25'2 3.4
2017-Nov-23 08:59N 48°17' W 004°25'  
2017-Nov-16 14:00N 48°17' W 004°25'2 4.1
2017-Nov-16 13:31N 48°19' W 004°27'2 3.5
2017-Nov-16 13:00N 48°21' W 004°27'0 0.4
2017-Nov-16 12:30N 48°21' W 004°27'0 0.0
2017-Nov-16 12:00N 48°21' W 004°27'0 0.0
2017-Nov-16 11:30N 48°21' W 004°27'0 0.9
2017-Nov-16 11:00N 48°20' W 004°27'2 3.3
2017-Nov-16 10:30N 48°19' W 004°26'1 2.2
2017-Nov-16 09:59N 48°18' W 004°25'1 1.9
2017-Nov-16 09:31N 48°17' W 004°24'1 1.0
2017-Nov-16 08:58N 48°17' W 004°25'0 0.0
2017-Nov-16 08:30N 48°17' W 004°25'0 0.0
2017-Nov-14 14:56N 48°17' W 004°25'1 2.3
2017-Nov-14 14:30N 48°18' W 004°25'  
Track history (hours):
 
Tides and Currents Weather Stations Pressure Air Temp Water Temp Dewpoint Dewpoint Depression Visibility Wind Speed Wind Dir Waves Ship Positions

Virginie Heriot

Last reported at 2017-Nov-24 14:29 UTC. Time now 2017-Nov-25 04:09 UTC.
Position N 48°17' W 004°25'.

Length 14 m.

Type: Sailing vessel. MMSI: 227071310.

Date/timePositionNaut miles runAvg speedWind from/ knotsBaromVisibWave heightAir tempDewpointWater temp
2017-Nov-24 14:29N 48°17' W 004°25'1 1.8
2017-Nov-24 14:01N 48°18' W 004°25'2 4.3
2017-Nov-24 13:30N 48°19' W 004°27'2 3.1
2017-Nov-24 13:01N 48°18' W 004°29'1 2.3
2017-Nov-24 12:29N 48°17' W 004°30'0 0.0
2017-Nov-24 11:59N 48°17' W 004°30'0 0.0
2017-Nov-24 11:29N 48°17' W 004°30'0 0.4
2017-Nov-24 11:01N 48°17' W 004°30'2 4.6
2017-Nov-24 10:30N 48°19' W 004°27'2 4.0
2017-Nov-24 10:00N 48°19' W 004°24'2 3.6
2017-Nov-24 09:30N 48°17' W 004°25'0 0.7
2017-Nov-24 09:00N 48°17' W 004°25'0 0.0
2017-Nov-23 15:02N 48°17' W 004°25'0 0.1
2017-Nov-23 14:59N 48°17' W 004°25'0 0.6
2017-Nov-23 14:30N 48°17' W 004°25'0 0.1
2017-Nov-23 13:58N 48°17' W 004°25'2 4.4
2017-Nov-23 13:30N 48°19' W 004°27'3 6.7
2017-Nov-23 13:00N 48°22' W 004°29'1 1.9
2017-Nov-23 12:30N 48°23' W 004°29'0 0.0
2017-Nov-23 12:00N 48°23' W 004°29'0 0.0
2017-Nov-23 11:30N 48°23' W 004°29'1 1.3
2017-Nov-23 11:00N 48°22' W 004°29'1 1.6
2017-Nov-23 10:30N 48°22' W 004°30'3 6.2
2017-Nov-23 10:00N 48°19' W 004°28'2 3.7
2017-Nov-23 09:30N 48°19' W 004°25'2 3.4
2017-Nov-23 08:59N 48°17' W 004°25'  
2017-Nov-16 14:00N 48°17' W 004°25'2 4.1
2017-Nov-16 13:31N 48°19' W 004°27'2 3.5
2017-Nov-16 13:00N 48°21' W 004°27'0 0.4
2017-Nov-16 12:30N 48°21' W 004°27'0 0.0
2017-Nov-16 12:00N 48°21' W 004°27'0 0.0
2017-Nov-16 11:30N 48°21' W 004°27'0 0.9
2017-Nov-16 11:00N 48°20' W 004°27'2 3.3
2017-Nov-16 10:30N 48°19' W 004°26'1 2.2
2017-Nov-16 09:59N 48°18' W 004°25'1 1.9
2017-Nov-16 09:31N 48°17' W 004°24'1 1.0
2017-Nov-16 08:58N 48°17' W 004°25'0 0.0
2017-Nov-16 08:30N 48°17' W 004°25'0 0.0
2017-Nov-14 14:56N 48°17' W 004°25'1 2.3
2017-Nov-14 14:30N 48°18' W 004°25'  

Dump ship's entire track history